Time;durP1;ratioP1;P1;durP2;ratioP2;P2;SDS_P1;SDS_P2;PMS_P1;PMS_P2;Temp;Humidity;BMP_temperature;BMP_pressure;BME280_temperature;BME280_humidity;BME280_pressure;Samples;Min_cycle;Max_cycle;Signal;HPM_P1;HPM_P2
2021/12/18 00:01:07;;;;;;;4.25;2.10;;;7.60;99.90;;;;;;5048163;28;20095;-70
2021/12/18 00:03:33;;;;;;;6.53;1.70;;;7.50;99.90;;;;;;5048380;28;20338;-69
2021/12/18 00:06:00;;;;;;;6.43;2.08;;;7.50;99.90;;;;;;5035153;28;20132;-70
2021/12/18 00:08:26;;;;;;;4.88;2.40;;;7.50;99.90;;;;;;5026657;28;20052;-70
2021/12/18 00:10:53;;;;;;;7.00;2.17;;;8.40;99.90;;;;;;5027722;28;20045;-69
2021/12/18 00:13:19;;;;;;;5.00;2.25;;;7.40;99.90;;;;;;5027519;28;20112;-70
2021/12/18 00:15:45;;;;;;;4.70;2.20;;;7.50;99.90;;;;;;5047181;28;20029;-70
2021/12/18 00:18:11;;;;;;;7.38;2.38;;;7.50;99.90;;;;;;5048187;28;20049;-70
2021/12/18 00:20:38;;;;;;;6.82;2.60;;;7.50;99.90;;;;;;5046174;28;20120;-70
2021/12/18 00:23:04;;;;;;;8.60;2.50;;;7.50;99.90;;;;;;5046072;28;20060;-70
2021/12/18 00:25:30;;;;;;;8.75;2.42;;;7.50;99.90;;;;;;5045857;28;20505;-69
2021/12/18 00:27:56;;;;;;;9.35;2.35;;;7.40;99.90;;;;;;5049545;28;20048;-70
2021/12/18 00:30:22;;;;;;;6.10;2.58;;;7.40;99.90;;;;;;5046118;28;20040;-69
2021/12/18 00:32:48;;;;;;;10.38;2.28;;;7.40;99.90;;;;;;5048195;28;20037;-70
2021/12/18 00:35:14;;;;;;;6.70;2.40;;;7.50;99.90;;;;;;5046271;28;20583;-70
2021/12/18 00:37:40;;;;;;;8.48;2.38;;;7.50;99.90;;;;;;5045011;28;20051;-70
2021/12/18 00:40:11;;;;;;;8.00;2.20;;;7.40;99.90;;;;;;5047229;28;20095;-69
2021/12/18 00:45:11;;;;;;;7.65;2.45;;;7.40;99.90;;;;;;5045066;28;20053;-70
2021/12/18 00:47:37;;;;;;;6.10;2.38;;;7.40;99.90;;;;;;5048943;28;20080;-70
2021/12/18 00:50:06;;;;;;;8.45;2.15;;;7.30;99.90;;;;;;5048800;28;20037;-70
2021/12/18 00:52:32;;;;;;;8.07;2.60;;;7.30;99.90;;;;;;5042082;28;20060;-70
2021/12/18 00:54:58;;;;;;;7.05;2.75;;;7.30;99.90;;;;;;5031451;28;20037;-70
2021/12/18 00:57:24;;;;;;;15.45;2.75;;;7.30;99.90;;;;;;5036707;28;20127;-70
2021/12/18 00:59:52;;;;;;;20.98;2.60;;;7.30;99.90;;;;;;5044860;28;20048;-71
2021/12/18 01:02:17;;;;;;;7.75;2.50;;;7.30;99.90;;;;;;5041654;28;20064;-69
2021/12/18 01:04:43;;;;;;;6.47;2.25;;;7.30;99.90;;;;;;5050694;28;20045;-70
2021/12/18 01:07:09;;;;;;;10.95;2.67;;;7.30;99.90;;;;;;5049404;28;20044;-69
2021/12/18 01:12:29;;;;;;;5.78;2.20;;;7.30;99.90;;;;;;5039757;28;20439;-69
2021/12/18 01:15:12;;;;;;;7.65;2.13;;;7.30;99.90;;;;;;5051380;28;20056;-70
2021/12/18 01:23:07;;;;;;;5.90;2.15;;;7.30;99.90;;;;;;5030330;28;20435;-69
2021/12/18 01:25:32;;;;;;;5.60;2.00;;;7.20;99.90;;;;;;5038919;28;20091;-69
2021/12/18 01:27:58;;;;;;;6.20;2.20;;;7.20;99.90;;;;;;5049873;28;20411;-69
2021/12/18 01:30:24;;;;;;;8.05;2.05;;;7.20;99.90;;;;;;5049050;28;20051;-69
2021/12/18 01:32:50;;;;;;;11.15;2.55;;;7.20;99.90;;;;;;5034458;28;20485;-69
2021/12/18 01:35:16;;;;;;;4.78;2.17;;;7.20;99.90;;;;;;5050217;28;20579;-69
2021/12/18 01:37:42;;;;;;;6.47;2.28;;;7.20;99.90;;;;;;5038494;28;20080;-69
2021/12/18 01:40:09;;;;;;;5.43;2.47;;;7.20;99.90;;;;;;5029778;28;20061;-69
2021/12/18 01:43:24;;;;;;;5.22;2.45;;;7.20;99.90;;;;;;5042124;28;20033;-69
2021/12/18 01:53:41;;;;;;;7.35;2.58;;;7.20;99.90;;;;;;5050120;28;20056;-69
2021/12/18 01:56:08;;;;;;;10.10;2.50;;;7.20;99.90;;;;;;5048744;28;20058;-70
2021/12/18 01:58:33;;;;;;;9.73;2.78;;;7.20;99.90;;;;;;5048971;28;20045;-69
2021/12/18 02:01:01;;;;;;;5.95;2.55;;;7.20;99.90;;;;;;5047887;28;20445;-69
2021/12/18 02:03:27;;;;;;;6.00;2.30;;;7.20;99.90;;;;;;5040288;28;20045;-69
2021/12/18 02:05:53;;;;;;;7.05;2.60;;;7.20;99.90;;;;;;5029048;28;20129;-69
2021/12/18 02:08:21;;;;;;;6.97;2.75;;;7.40;99.90;;;;;;5043997;28;20501;-69
2021/12/18 02:11:34;;;;;;;8.85;3.17;;;7.40;99.90;;;;;;5033203;28;20123;-69
2021/12/18 02:21:33;;;;;;;9.05;3.30;;;7.20;99.90;;;;;;5036047;28;20131;-69
2021/12/18 02:23:59;;;;;;;4.68;2.40;;;7.30;99.90;;;;;;5031148;28;20041;-69
2021/12/18 02:26:25;;;;;;;4.95;2.03;;;7.30;99.90;;;;;;5045756;28;20069;-69
2021/12/18 02:28:54;;;;;;;4.05;1.75;;;7.20;99.90;;;;;;5049626;28;20045;-69
2021/12/18 02:31:20;;;;;;;5.30;1.90;;;7.30;99.90;;;;;;5046446;28;20136;-69
2021/12/18 02:33:46;;;;;;;5.38;1.60;;;7.20;99.90;;;;;;5050121;28;20119;-69
2021/12/18 02:36:21;;;;;;;5.25;1.90;;;7.20;99.90;;;;;;5047788;28;20119;-69
2021/12/18 02:41:31;;;;;;;5.95;1.92;;;7.10;99.90;;;;;;5048717;28;20052;-70
2021/12/18 02:44:02;;;;;;;4.35;1.90;;;7.20;99.90;;;;;;5046166;28;20048;-69
2021/12/18 02:46:28;;;;;;;5.28;1.75;;;7.20;99.90;;;;;;5047826;28;20048;-69
2021/12/18 02:48:56;;;;;;;6.22;1.85;;;7.10;99.90;;;;;;5047984;28;20375;-69
2021/12/18 02:51:23;;;;;;;6.15;1.92;;;7.10;99.90;;;;;;5046595;28;20041;-69
2021/12/18 02:53:50;;;;;;;7.75;1.80;;;7.20;99.90;;;;;;5047746;28;20087;-69
2021/12/18 02:56:22;;;;;;;4.70;1.75;;;7.20;99.90;;;;;;5045862;28;20084;-69
2021/12/18 02:58:51;;;;;;;3.88;1.65;;;7.20;99.90;;;;;;5046330;28;20043;-69
2021/12/18 03:01:20;;;;;;;4.88;1.80;;;7.20;99.90;;;;;;5040489;28;20115;-70
2021/12/18 03:03:47;;;;;;;6.28;1.83;;;7.20;99.90;;;;;;5041330;28;20069;-69
2021/12/18 03:25:08;;;;;;;5.82;1.90;;;7.20;99.90;;;;;;5033669;28;20609;-69
2021/12/18 03:27:34;;;;;;;6.30;2.00;;;7.10;99.90;;;;;;5023832;28;20053;-69
2021/12/18 03:30:00;;;;;;;6.97;2.00;;;7.20;99.90;;;;;;5046827;28;20052;-69
2021/12/18 03:32:26;;;;;;;4.43;1.80;;;7.20;99.90;;;;;;5047239;28;20045;-70
2021/12/18 03:34:53;;;;;;;6.40;1.95;;;7.20;99.90;;;;;;5047657;28;20079;-69
2021/12/18 03:37:19;;;;;;;5.55;1.98;;;7.20;99.90;;;;;;5040978;28;20044;-70
2021/12/18 03:39:46;;;;;;;4.05;1.80;;;7.20;99.90;;;;;;5026753;28;20103;-68
2021/12/18 03:42:12;;;;;;;4.53;2.08;;;7.20;99.90;;;;;;5031589;28;20048;-69
2021/12/18 03:44:39;;;;;;;6.50;1.95;;;7.20;99.90;;;;;;5037295;28;20043;-69
2021/12/18 03:47:05;;;;;;;3.70;1.77;;;7.20;99.90;;;;;;5048002;28;20044;-69
2021/12/18 03:49:31;;;;;;;3.45;1.83;;;7.20;99.90;;;;;;5045244;28;20041;-69
2021/12/18 03:51:57;;;;;;;4.80;1.90;;;7.20;99.90;;;;;;5029659;28;20083;-69
2021/12/18 03:54:23;;;;;;;4.47;1.88;;;7.20;99.90;;;;;;5031470;28;20040;-69
2021/12/18 03:56:48;;;;;;;3.38;1.67;;;7.30;99.90;;;;;;5045417;28;20204;-68
2021/12/18 03:59:14;;;;;;;5.82;1.90;;;7.20;99.90;;;;;;5049193;28;20044;-69
2021/12/18 04:01:40;;;;;;;5.53;2.20;;;7.20;99.90;;;;;;5049829;28;20497;-69
2021/12/18 04:04:05;;;;;;;5.50;2.22;;;7.30;99.90;;;;;;5030698;28;20060;-69
2021/12/18 04:06:31;;;;;;;4.90;2.30;;;7.30;99.90;;;;;;5040414;28;20036;-69
2021/12/18 04:08:58;;;;;;;4.60;2.30;;;7.30;99.90;;;;;;5049187;28;20045;-69
2021/12/18 04:11:23;;;;;;;4.05;2.20;;;7.30;99.90;;;;;;5047432;28;20560;-69
2021/12/18 04:13:49;;;;;;;4.50;2.40;;;7.30;99.90;;;;;;5046139;28;20045;-69
2021/12/18 04:16:15;;;;;;;4.70;2.42;;;7.30;99.90;;;;;;5047266;28;20072;-69
2021/12/18 04:18:41;;;;;;;5.88;2.70;;;7.10;99.90;;;;;;5051701;28;20103;-69
2021/12/18 04:21:08;;;;;;;5.25;2.45;;;7.30;99.90;;;;;;5042700;28;20548;-69
2021/12/18 04:23:33;;;;;;;6.30;2.65;;;7.30;99.90;;;;;;5034667;28;20053;-69
2021/12/18 04:25:59;;;;;;;6.88;2.38;;;7.30;99.90;;;;;;5042783;28;20052;-70
2021/12/18 04:28:26;;;;;;;5.50;2.50;;;7.30;99.90;;;;;;5053238;28;20047;-69
2021/12/18 04:30:51;;;;;;;5.78;2.40;;;7.30;99.90;;;;;;5053116;28;20409;-69
2021/12/18 04:33:18;;;;;;;5.45;2.80;;;7.40;99.90;;;;;;5053993;28;20037;-69
2021/12/18 04:35:44;;;;;;;7.00;2.85;;;7.40;99.90;;;;;;5053008;28;20143;-69
2021/12/18 04:38:09;;;;;;;7.05;3.00;;;7.40;99.90;;;;;;5049281;28;20037;-69
2021/12/18 04:40:36;;;;;;;5.93;2.80;;;7.40;99.90;;;;;;5033844;28;20107;-69
2021/12/18 04:43:02;;;;;;;6.47;2.90;;;7.40;99.90;;;;;;5037709;28;20146;-69
2021/12/18 04:45:29;;;;;;;7.53;3.20;;;7.40;99.90;;;;;;5034111;28;20045;-69
2021/12/18 04:47:56;;;;;;;7.95;3.30;;;7.40;99.90;;;;;;5053392;28;20102;-69
2021/12/18 04:50:23;;;;;;;6.10;3.03;;;8.10;99.90;;;;;;5052928;28;20435;-69
2021/12/18 04:52:49;;;;;;;7.07;3.00;;;7.50;99.90;;;;;;5051793;28;20068;-69
2021/12/18 04:55:15;;;;;;;6.68;3.55;;;7.50;99.90;;;;;;5032525;28;20037;-70
2021/12/18 04:57:41;;;;;;;8.07;3.10;;;7.50;99.90;;;;;;5048619;28;20036;-69
2021/12/18 05:00:09;;;;;;;6.78;3.38;;;7.50;99.90;;;;;;5036047;28;20481;-69
2021/12/18 05:02:41;;;;;;;8.00;3.40;;;7.50;99.90;;;;;;5050429;28;20060;-69
2021/12/18 05:05:08;;;;;;;6.82;3.45;;;7.50;99.90;;;;;;5034181;28;20049;-70
2021/12/18 05:07:34;;;;;;;8.88;3.40;;;7.50;99.90;;;;;;5035061;28;20049;-69
2021/12/18 05:10:01;;;;;;;7.53;3.70;;;7.50;99.90;;;;;;5048450;28;20037;-69
2021/12/18 05:12:26;;;;;;;8.50;3.55;;;7.60;99.90;;;;;;5053520;28;20056;-69
2021/12/18 05:14:52;;;;;;;8.68;3.80;;;7.60;99.90;;;;;;5054603;28;20489;-69
2021/12/18 05:17:18;;;;;;;8.20;4.05;;;7.60;99.90;;;;;;5051495;28;20055;-69
2021/12/18 05:19:43;;;;;;;8.02;3.60;;;7.60;99.90;;;;;;5032334;28;20512;-69
2021/12/18 05:22:09;;;;;;;11.55;4.30;;;7.60;99.90;;;;;;5033615;28;20037;-69
2021/12/18 05:24:35;;;;;;;11.93;4.30;;;7.60;99.90;;;;;;5015650;28;20409;-69
2021/12/18 05:27:01;;;;;;;12.68;4.88;;;7.70;99.90;;;;;;5042109;28;20049;-69
2021/12/18 05:29:27;;;;;;;12.32;4.18;;;7.70;99.90;;;;;;5032640;28;20531;-69
2021/12/18 05:31:54;;;;;;;10.93;4.43;;;7.70;99.90;;;;;;5041218;28;20037;-69
2021/12/18 05:34:24;;;;;;;12.65;4.78;;;7.80;99.90;;;;;;5050830;28;20072;-69
2021/12/18 05:39:25;;;;;;;13.50;5.03;;;7.80;99.90;;;;;;5034034;28;20084;-69
2021/12/18 05:41:51;;;;;;;12.48;4.93;;;7.80;99.90;;;;;;5033585;28;20133;-71
2021/12/18 05:44:18;;;;;;;13.93;4.50;;;7.80;99.90;;;;;;5040899;28;20417;-69
2021/12/18 05:46:45;;;;;;;13.43;4.78;;;7.80;99.90;;;;;;5049887;28;20136;-69
2021/12/18 05:49:11;;;;;;;15.32;5.32;;;7.80;99.90;;;;;;5031798;28;20103;-69
2021/12/18 05:51:37;;;;;;;15.82;4.85;;;7.90;99.90;;;;;;5028968;28;20541;-69
2021/12/18 05:54:04;;;;;;;12.32;4.80;;;7.90;99.90;;;;;;5029853;28;20124;-69
2021/12/18 05:56:30;;;;;;;12.38;5.25;;;7.90;99.90;;;;;;5029105;28;20038;-68
2021/12/18 05:58:56;;;;;;;13.35;4.82;;;7.90;99.90;;;;;;5047042;28;20120;-68
2021/12/18 06:01:22;;;;;;;9.98;4.93;;;8.00;99.90;;;;;;5050111;28;20119;-69
2021/12/18 06:03:48;;;;;;;13.10;5.05;;;8.00;99.90;;;;;;5049397;28;20494;-69
2021/12/18 06:06:14;;;;;;;13.32;4.95;;;8.00;99.90;;;;;;5049365;28;20049;-69
2021/12/18 06:08:42;;;;;;;11.52;4.85;;;8.00;99.90;;;;;;5049898;28;20037;-68
2021/12/18 06:11:13;;;;;;;11.90;4.68;;;8.00;99.90;;;;;;5050166;28;20052;-68
2021/12/18 06:13:40;;;;;;;15.25;4.80;;;8.00;99.90;;;;;;5049730;28;20510;-68
2021/12/18 06:16:06;;;;;;;12.43;5.20;;;8.10;99.90;;;;;;5050288;28;20033;-68
2021/12/18 06:18:40;;;;;;;12.88;5.68;;;8.10;99.90;;;;;;5045103;28;20508;-69
2021/12/18 06:21:06;;;;;;;15.15;5.20;;;8.10;99.90;;;;;;5037335;28;20416;-69
2021/12/18 06:23:31;;;;;;;14.23;5.50;;;8.10;99.90;;;;;;5039090;28;20041;-69
2021/12/18 06:25:58;;;;;;;15.90;5.70;;;8.10;99.90;;;;;;5049754;28;20405;-69
2021/12/18 06:28:23;;;;;;;19.00;5.38;;;8.20;99.90;;;;;;5049100;28;20045;-69
2021/12/18 06:30:49;;;;;;;11.90;5.60;;;8.20;99.90;;;;;;5050350;28;20383;-69
2021/12/18 06:33:16;;;;;;;11.55;5.30;;;8.20;99.90;;;;;;5050054;28;20402;-69
2021/12/18 06:35:41;;;;;;;15.32;5.45;;;8.40;99.90;;;;;;5047165;28;20049;-69
2021/12/18 06:38:07;;;;;;;15.32;5.45;;;8.20;99.90;;;;;;5038885;28;20568;-69
2021/12/18 06:40:33;;;;;;;17.00;5.57;;;8.20;99.90;;;;;;5032507;28;20088;-69
2021/12/18 06:42:59;;;;;;;15.82;5.03;;;9.30;99.90;;;;;;5032216;28;20116;-69
2021/12/18 06:45:25;;;;;;;13.20;4.82;;;8.30;99.90;;;;;;5047715;28;20120;-69
2021/12/18 06:47:51;;;;;;;10.18;4.90;;;8.30;99.90;;;;;;5049226;28;20040;-69
2021/12/18 06:50:16;;;;;;;12.23;4.57;;;8.30;99.90;;;;;;5048532;28;20080;-69
2021/12/18 06:52:42;;;;;;;9.43;4.45;;;8.30;99.90;;;;;;5048390;28;20041;-69
2021/12/18 06:55:08;;;;;;;9.93;4.00;;;8.30;99.90;;;;;;5046860;28;20125;-69
2021/12/18 06:57:34;;;;;;;14.20;3.92;;;8.90;99.90;;;;;;5048328;28;20482;-70
2021/12/18 07:00:00;;;;;;;12.00;3.85;;;8.40;99.90;;;;;;5046880;28;20087;-69
2021/12/18 07:02:26;;;;;;;10.38;3.55;;;8.40;99.90;;;;;;5027724;28;20053;-69
2021/12/18 07:04:51;;;;;;;9.88;4.00;;;9.60;99.90;;;;;;5029831;28;20038;-69
2021/12/18 07:07:17;;;;;;;13.23;3.50;;;9.40;99.90;;;;;;5029212;28;20054;-69
2021/12/18 07:09:44;;;;;;;8.65;3.30;;;8.50;99.90;;;;;;5029421;28;20462;-69
2021/12/18 07:12:10;;;;;;;10.13;3.05;;;8.50;99.90;;;;;;5038892;28;20091;-69
2021/12/18 07:14:37;;;;;;;9.95;3.25;;;8.50;99.90;;;;;;5049639;28;20044;-69
2021/12/18 07:17:04;;;;;;;10.30;3.00;;;8.50;99.90;;;;;;5050267;28;20413;-71
2021/12/18 07:19:29;;;;;;;11.63;3.50;;;8.60;99.90;;;;;;5046092;28;20041;-71
2021/12/18 07:21:55;;;;;;;8.07;2.70;;;8.80;99.90;;;;;;5027171;28;20052;-68
2021/12/18 07:24:21;;;;;;;10.52;3.03;;;8.60;99.90;;;;;;5028000;28;20497;-69
2021/12/18 07:26:47;;;;;;;9.45;2.92;;;8.50;99.90;;;;;;5028492;28;20125;-69
2021/12/18 07:29:12;;;;;;;11.23;2.90;;;8.50;99.90;;;;;;5046235;28;20500;-70
2021/12/18 07:31:38;;;;;;;9.82;3.35;;;8.60;99.90;;;;;;5049305;28;20049;-69
2021/12/18 07:34:04;;;;;;;11.75;3.15;;;8.60;99.90;;;;;;5034020;28;20064;-70
2021/12/18 07:36:30;;;;;;;11.85;3.08;;;8.60;99.90;;;;;;5038886;28;20053;-70
2021/12/18 07:38:55;;;;;;;10.48;3.25;;;8.70;99.90;;;;;;5010558;28;20527;-70
2021/12/18 07:41:21;;;;;;;9.20;3.08;;;8.70;99.90;;;;;;5031818;28;20048;-69
2021/12/18 07:43:47;;;;;;;10.98;3.00;;;8.70;99.90;;;;;;5041534;28;20084;-69
2021/12/18 07:46:12;;;;;;;11.82;3.38;;;8.70;99.90;;;;;;5027603;28;20171;-69
2021/12/18 07:48:38;;;;;;;7.65;3.20;;;8.60;99.90;;;;;;5010954;28;20044;-69
2021/12/18 07:51:04;;;;;;;13.20;3.40;;;8.70;99.90;;;;;;5028016;28;20403;-70
2021/12/18 07:53:30;;;;;;;9.73;3.20;;;8.60;99.90;;;;;;5027017;28;20048;-69
2021/12/18 07:55:55;;;;;;;12.20;3.60;;;8.70;99.90;;;;;;5026280;28;20049;-69
2021/12/18 07:58:21;;;;;;;9.40;3.30;;;8.70;99.90;;;;;;5033195;28;20090;-71
2021/12/18 08:00:46;;;;;;;13.80;3.83;;;8.80;99.90;;;;;;5048336;28;20049;-71
2021/12/18 08:03:12;;;;;;;8.75;3.38;;;8.80;99.90;;;;;;5047392;28;20041;-71
2021/12/18 08:05:38;;;;;;;13.18;3.83;;;9.00;99.90;;;;;;5045372;28;20087;-71
2021/12/18 08:08:04;;;;;;;12.20;3.58;;;8.80;99.90;;;;;;5059333;28;20048;-71
2021/12/18 08:10:30;;;;;;;9.77;3.47;;;8.80;99.90;;;;;;5046692;28;20045;-71
2021/12/18 08:12:55;;;;;;;16.63;3.90;;;8.80;99.90;;;;;;5047712;28;20088;-71
2021/12/18 08:15:21;;;;;;;11.00;3.60;;;8.80;99.90;;;;;;5048175;28;20068;-70
2021/12/18 08:17:47;;;;;;;10.80;3.55;;;8.80;99.90;;;;;;5046642;28;20119;-71
2021/12/18 08:20:12;;;;;;;13.07;3.05;;;8.80;99.90;;;;;;5047694;28;20544;-71
2021/12/18 08:22:38;;;;;;;12.02;3.42;;;8.80;99.90;;;;;;5047858;28;20154;-71
2021/12/18 08:25:05;;;;;;;12.77;3.00;;;8.80;99.90;;;;;;5040006;28;20047;-71
2021/12/18 08:27:32;;;;;;;10.02;2.90;;;8.90;99.90;;;;;;5035959;28;20525;-71
2021/12/18 08:29:57;;;;;;;8.23;2.70;;;8.90;99.90;;;;;;5036939;28;20041;-71
2021/12/18 08:32:23;;;;;;;10.60;2.88;;;8.90;99.90;;;;;;5024800;28;20041;-70
2021/12/18 08:34:48;;;;;;;9.30;2.83;;;8.90;99.90;;;;;;5048300;28;20048;-71
2021/12/18 08:37:14;;;;;;;9.60;2.92;;;9.00;99.90;;;;;;5044842;28;20109;-70
2021/12/18 08:39:40;;;;;;;8.65;2.63;;;9.00;99.90;;;;;;5046168;28;20080;-69
2021/12/18 08:42:06;;;;;;;9.70;2.75;;;8.90;99.90;;;;;;5047658;28;20075;-69
2021/12/18 08:44:33;;;;;;;8.18;2.58;;;8.90;99.90;;;;;;5044027;28;20128;-70
2021/12/18 08:46:59;;;;;;;7.88;2.80;;;8.90;99.90;;;;;;5046742;28;20045;-70
2021/12/18 08:49:26;;;;;;;7.32;2.50;;;9.00;99.90;;;;;;5046232;28;20101;-71
2021/12/18 08:51:55;;;;;;;10.32;2.38;;;8.90;99.90;;;;;;5038672;28;20044;-71
2021/12/18 08:54:22;;;;;;;7.93;2.63;;;9.50;99.90;;;;;;5047847;28;20246;-71
2021/12/18 08:56:47;;;;;;;8.25;2.40;;;9.00;99.90;;;;;;5047094;28;20132;-70
2021/12/18 08:59:13;;;;;;;7.97;2.70;;;8.90;99.90;;;;;;5046284;28;20186;-66
2021/12/18 09:01:39;;;;;;;11.35;2.83;;;9.00;99.90;;;;;;5044774;28;20076;-67
2021/12/18 09:04:05;;;;;;;10.45;2.70;;;9.00;99.90;;;;;;5028990;28;20454;-66
2021/12/18 09:06:31;;;;;;;13.13;2.80;;;10.00;99.90;;;;;;5035499;28;20512;-68
2021/12/18 09:08:57;;;;;;;6.00;2.50;;;9.10;99.90;;;;;;5047649;28;20361;-66
2021/12/18 09:11:23;;;;;;;8.23;2.90;;;9.10;99.90;;;;;;5037001;28;20037;-65
2021/12/18 09:13:50;;;;;;;10.10;2.90;;;8.40;99.90;;;;;;5050834;28;20156;-66
2021/12/18 09:16:15;;;;;;;8.43;2.65;;;9.60;99.90;;;;;;5049976;28;20048;-65
2021/12/18 09:18:41;;;;;;;12.75;2.70;;;9.10;99.90;;;;;;5050900;28;20065;-66
2021/12/18 09:21:07;;;;;;;8.30;3.00;;;9.10;99.90;;;;;;5050209;28;20053;-66
2021/12/18 09:23:33;;;;;;;8.20;2.88;;;9.10;99.90;;;;;;5046807;28;20091;-67
2021/12/18 09:25:59;;;;;;;9.68;3.30;;;9.10;99.90;;;;;;5042441;28;20036;-67
2021/12/18 09:28:25;;;;;;;8.90;3.30;;;9.10;99.90;;;;;;5035898;28;20033;-66
2021/12/18 09:30:51;;;;;;;12.75;3.08;;;9.20;99.90;;;;;;5049565;28;20555;-67
2021/12/18 09:33:18;;;;;;;10.48;3.67;;;9.90;99.90;;;;;;5041693;28;20037;-67
2021/12/18 09:35:45;;;;;;;10.07;3.33;;;9.20;99.90;;;;;;5048255;28;20048;-66
2021/12/18 09:38:11;;;;;;;10.43;3.72;;;9.20;99.90;;;;;;5046421;28;20053;-66
2021/12/18 09:40:38;;;;;;;9.40;4.43;;;10.10;99.90;;;;;;5047191;28;20041;-66
2021/12/18 09:43:04;;;;;;;8.23;4.00;;;9.20;99.90;;;;;;5047294;28;20524;-67
2021/12/18 09:45:30;;;;;;;12.27;4.55;;;9.20;99.90;;;;;;5032028;28;20049;-66
2021/12/18 09:47:55;;;;;;;10.40;4.72;;;9.20;99.90;;;;;;5033489;28;20570;-67
2021/12/18 09:50:24;;;;;;;10.27;4.25;;;9.20;99.90;;;;;;5027365;28;20044;-68
2021/12/18 09:52:52;;;;;;;12.50;4.60;;;9.20;99.90;;;;;;5046445;28;20048;-67
2021/12/18 09:55:18;;;;;;;15.80;5.03;;;9.20;99.90;;;;;;5048891;28;20082;-67
2021/12/18 09:57:44;;;;;;;11.85;4.50;;;9.20;99.90;;;;;;5048315;28;20509;-67
2021/12/18 10:00:14;;;;;;;11.77;4.28;;;9.20;99.90;;;;;;5048536;28;20075;-68
2021/12/18 10:02:40;;;;;;;10.15;4.32;;;9.20;99.90;;;;;;5040623;28;20083;-68
2021/12/18 10:05:07;;;;;;;10.45;3.90;;;9.20;99.90;;;;;;5048618;28;20053;-68
2021/12/18 10:07:32;;;;;;;13.07;3.90;;;9.30;99.90;;;;;;5020758;28;20046;-67
2021/12/18 10:10:00;;;;;;;9.73;3.72;;;9.30;99.90;;;;;;5051895;28;20505;-67
2021/12/18 10:12:31;;;;;;;8.13;4.10;;;9.10;99.90;;;;;;5050405;28;20066;-67
2021/12/18 10:15:12;;;;;;;9.25;3.80;;;9.30;99.90;;;;;;5049956;28;20492;-68
2021/12/18 10:17:39;;;;;;;12.32;3.70;;;9.30;99.90;;;;;;5043334;28;20048;-68
2021/12/18 10:20:16;;;;;;;9.68;3.55;;;9.40;99.90;;;;;;5049894;28;20049;-67
2021/12/18 10:22:51;;;;;;;9.18;3.80;;;9.40;99.90;;;;;;5049435;28;20041;-68
2021/12/18 10:25:23;;;;;;;9.32;4.18;;;9.50;99.90;;;;;;5045534;28;20041;-68
2021/12/18 10:28:09;;;;;;;10.55;3.88;;;10.30;99.90;;;;;;5043874;28;20041;-67
2021/12/18 10:30:41;;;;;;;10.65;4.30;;;9.40;99.90;;;;;;5039889;28;20049;-67
2021/12/18 10:33:11;;;;;;;12.57;4.43;;;9.50;99.90;;;;;;5031898;28;20128;-66
2021/12/18 10:35:39;;;;;;;10.40;4.10;;;9.40;99.90;;;;;;5028386;28;20037;-67
2021/12/18 10:38:05;;;;;;;11.00;4.25;;;9.40;99.90;;;;;;5035660;28;20037;-66
2021/12/18 10:40:46;;;;;;;13.35;4.88;;;9.40;99.90;;;;;;5046802;28;20049;-67
2021/12/18 10:43:13;;;;;;;13.35;4.30;;;9.50;99.90;;;;;;5049954;28;20123;-67
2021/12/18 10:45:39;;;;;;;9.32;4.10;;;9.50;99.90;;;;;;5043121;28;20049;-66
2021/12/18 10:48:08;;;;;;;11.50;3.80;;;9.60;99.90;;;;;;5040820;28;20401;-66
2021/12/18 10:50:46;;;;;;;13.30;4.03;;;9.50;99.90;;;;;;5047125;28;20110;-66
2021/12/18 10:53:21;;;;;;;9.35;3.80;;;9.50;99.90;;;;;;5048058;28;20080;-67
2021/12/18 10:55:50;;;;;;;9.95;3.03;;;9.50;99.90;;;;;;5048998;28;20041;-66
2021/12/18 10:58:34;;;;;;;7.85;2.92;;;9.50;99.90;;;;;;5038506;28;20103;-66
2021/12/18 11:01:09;;;;;;;7.57;3.20;;;9.50;99.90;;;;;;5015291;28;20077;-66
2021/12/18 11:03:35;;;;;;;7.88;3.83;;;9.60;99.90;;;;;;5032750;28;20033;-67
2021/12/18 11:06:12;;;;;;;10.13;3.97;;;9.60;99.90;;;;;;5033433;28;20060;-68
2021/12/18 11:09:04;;;;;;;8.82;3.53;;;9.60;99.90;;;;;;5026917;28;20037;-66
2021/12/18 11:14:21;;;;;;;8.93;3.42;;;10.40;99.90;;;;;;5028219;28;20060;-67
2021/12/18 11:16:59;;;;;;;9.90;3.38;;;9.60;99.90;;;;;;5029039;28;20045;-67
2021/12/18 11:19:28;;;;;;;12.55;3.42;;;9.70;99.90;;;;;;5027177;28;20077;-67
2021/12/18 11:21:59;;;;;;;10.77;4.10;;;9.70;99.90;;;;;;5031781;28;20062;-67
2021/12/18 11:24:42;;;;;;;11.77;3.40;;;9.70;99.90;;;;;;5048896;28;20041;-67
2021/12/18 11:27:11;;;;;;;9.88;3.45;;;9.70;99.90;;;;;;5048369;28;20063;-67
2021/12/18 11:29:51;;;;;;;11.98;3.80;;;9.70;99.90;;;;;;5048193;28;20076;-67
2021/12/18 11:32:18;;;;;;;10.35;3.50;;;9.70;99.90;;;;;;5048412;28;20041;-67
2021/12/18 11:34:46;;;;;;;10.82;3.70;;;9.70;99.90;;;;;;5048462;28;20124;-67
2021/12/18 11:37:15;;;;;;;8.98;2.78;;;9.70;99.90;;;;;;5047395;28;20041;-67
2021/12/18 11:39:43;;;;;;;13.65;3.67;;;9.70;99.90;;;;;;5047810;28;20045;-67
2021/12/18 11:42:12;;;;;;;9.38;2.97;;;9.80;99.90;;;;;;5046137;28;20615;-67
2021/12/18 11:44:40;;;;;;;12.38;3.17;;;9.70;99.90;;;;;;5048052;28;20387;-67
2021/12/18 11:47:23;;;;;;;8.75;3.42;;;9.80;99.90;;;;;;5047675;28;20051;-67
2021/12/18 11:49:49;;;;;;;11.07;3.15;;;9.80;99.90;;;;;;5046499;28;20052;-67
2021/12/18 11:52:15;;;;;;;14.80;3.35;;;9.80;99.90;;;;;;5028721;28;20059;-67
2021/12/18 11:54:51;;;;;;;9.25;2.95;;;9.90;99.90;;;;;;5045775;28;20045;-67
2021/12/18 11:57:48;;;;;;;10.60;3.22;;;9.80;99.90;;;;;;5046231;28;20056;-67
2021/12/18 12:00:17;;;;;;;9.55;3.15;;;9.90;99.90;;;;;;5045134;28;20140;-68
2021/12/18 12:02:50;;;;;;;10.30;3.10;;;9.90;99.90;;;;;;5047395;28;20389;-67
2021/12/18 12:05:18;;;;;;;10.57;3.55;;;9.90;99.90;;;;;;5045486;28;20049;-67
2021/12/18 12:07:45;;;;;;;9.48;3.13;;;9.90;99.90;;;;;;5048427;28;20041;-67
2021/12/18 12:10:45;;;;;;;10.85;3.60;;;9.90;99.90;;;;;;5044759;28;20170;-67
2021/12/18 12:13:08;;;;;;;13.15;3.80;;;9.90;99.90;;;;;;5046398;28;20147;-67
2021/12/18 12:15:34;;;;;;;11.65;3.33;;;9.90;99.90;;;;;;5044955;28;20162;-67
2021/12/18 12:18:05;;;;;;;10.23;3.50;;;9.90;99.90;;;;;;5046843;28;20033;-68
2021/12/18 12:20:36;;;;;;;10.43;3.45;;;10.00;99.90;;;;;;5046035;28;20234;-67
2021/12/18 12:23:04;;;;;;;10.93;3.80;;;10.00;99.90;;;;;;5047205;28;20220;-67
2021/12/18 12:25:34;;;;;;;12.57;3.65;;;9.90;99.90;;;;;;5044941;28;20111;-67
2021/12/18 12:28:09;;;;;;;11.60;3.70;;;9.90;99.90;;;;;;5046431;28;20041;-67
2021/12/18 12:30:43;;;;;;;12.38;3.97;;;9.90;99.90;;;;;;5044540;28;20068;-67
2021/12/18 12:33:31;;;;;;;13.35;4.25;;;10.10;99.90;;;;;;5046615;28;20049;-67
2021/12/18 12:36:11;;;;;;;15.68;4.30;;;9.90;99.90;;;;;;5038069;28;20040;-67
2021/12/18 12:38:56;;;;;;;14.20;3.60;;;9.80;99.90;;;;;;5025976;28;20049;-67
2021/12/18 12:41:38;;;;;;;11.82;3.80;;;9.80;99.90;;;;;;5044860;28;20052;-67
2021/12/18 12:44:34;;;;;;;11.18;3.45;;;9.80;99.90;;;;;;5040968;28;20112;-67
2021/12/18 12:47:12;;;;;;;;;;;9.80;99.90;;;;;;5046652;28;20092;-67
2021/12/18 12:49:38;;;;;;;13.02;3.78;;;9.80;99.90;;;;;;5029339;28;19936;-68
2021/12/18 12:52:12;;;;;;;13.85;3.53;;;9.90;99.90;;;;;;5029116;28;20041;-68
2021/12/18 12:54:38;;;;;;;10.40;3.65;;;9.80;99.90;;;;;;5029776;28;20052;-67
2021/12/18 12:57:22;;;;;;;13.73;3.63;;;9.70;99.90;;;;;;5028256;28;20053;-69
2021/12/18 12:59:58;;;;;;;11.75;4.10;;;9.70;99.90;;;;;;5028648;28;20132;-67
2021/12/18 13:02:25;;;;;;;11.90;3.65;;;9.70;99.90;;;;;;5028956;28;20046;-67
2021/12/18 13:05:01;;;;;;;10.88;3.60;;;9.80;99.90;;;;;;5031464;28;20046;-67
2021/12/18 13:07:26;;;;;;;;;;;9.80;99.90;;;;;;5031885;28;20049;-67
2021/12/18 13:09:52;;;;;;;12.30;3.10;;;9.80;99.90;;;;;;5029273;28;20026;-67
2021/12/18 13:12:18;;;;;;;9.52;3.40;;;9.80;99.90;;;;;;5011137;28;20080;-67
2021/12/18 13:14:45;;;;;;;12.35;3.63;;;9.70;99.90;;;;;;5029724;28;20075;-67
2021/12/18 13:17:17;;;;;;;11.57;3.80;;;9.80;99.90;;;;;;5028816;28;20425;-67
2021/12/18 13:19:59;;;;;;;10.55;3.47;;;9.80;99.90;;;;;;5033255;28;20059;-66
2021/12/18 13:22:32;;;;;;;8.38;2.88;;;9.70;99.90;;;;;;5039307;28;20045;-67
2021/12/18 13:25:09;;;;;;;12.07;3.42;;;9.70;99.90;;;;;;5042110;28;20275;-67
2021/12/18 13:27:37;;;;;;;7.65;3.15;;;9.70;99.90;;;;;;5028001;28;20042;-67
2021/12/18 13:30:21;;;;;;;10.15;3.78;;;9.70;99.90;;;;;;5030913;28;20041;-67
2021/12/18 13:33:06;;;;;;;10.07;3.08;;;9.70;99.90;;;;;;5042758;28;20162;-67
2021/12/18 13:35:34;;;;;;;10.57;3.00;;;9.70;99.90;;;;;;5047698;28;20041;-67
2021/12/18 13:38:02;;;;;;;9.20;3.40;;;9.70;99.90;;;;;;5050120;28;20053;-67
2021/12/18 13:40:30;;;;;;;14.57;3.67;;;10.60;99.90;;;;;;5048098;28;20520;-67
2021/12/18 13:43:23;;;;;;;7.15;2.80;;;10.70;99.90;;;;;;5048446;28;20061;-68
2021/12/18 13:46:05;;;;;;;13.52;2.85;;;9.70;99.90;;;;;;5047408;28;20508;-67
2021/12/18 13:48:43;;;;;;;8.38;2.47;;;9.70;99.90;;;;;;5043193;28;20393;-67
2021/12/18 13:51:18;;;;;;;8.95;2.95;;;9.70;99.90;;;;;;5027247;28;20405;-67
2021/12/18 13:53:53;;;;;;;13.63;3.17;;;9.60;99.90;;;;;;5030211;28;20041;-67